Dwellingup, Australia
Current Conditions -  °F | °C
As of 11:30 AM on Tuesday 27 Jan 2015 (Local Time) from YPJT Reporting Station
Clear Clear  
Wind Chill: 97°   Ceiling: Unl
Heat Index: 97°   Visibility: 6mi
Dew Point: 45°   Wind: 8mph
Humidity: 17%   Direction: 90°E
Pressure: 29.74"   Gusts: NA
Location:  32.71°S, 116.06°E
Report Text: YPJT 270330Z AUTO 09007KT 040V120 9999 // NCD 36/07 Q1007
Loading
Personal Weather Stations






























Interactive Weather Map New forecast layout! Learn more

10-Day Weather Forecast

Advertisements
Track Severe Weather on mobile